Luck, WI (54853)

12:27 AM CDT on October 02, 2014 (GMT -0500)
Big Butternut Lake | Change Station
CLOSE
Current Station
Personal Weather Station
Location: Luck, WI
Elevation: 1198 ft
Nearby Weather Stations
Active Advisory: Dense Fog Advisory

Elev 1198 ft 45.57 °N, 92.45 °W | Updated 2 seconds ago

Fog
Fog
54.0 °F
Feels Like 54.0 °F
N
0.0
Wind Variable Wind from SE
Gusts 0.0 mph

Today
High -- | Low -- °F
--% Chance of Precip.
Yesterday
High -- | Low -- °F
Precip. -- in
7:09 AM 6:48 PM
First Quarter, 55% visible
Pressure 29.84 in
Visibility 1.5 miles
Clouds Mostly Cloudy 200 ft
Overcast 800 ft
Dew Point 53 °F
Humidity 98%
Rainfall 0.00 in
Snow Depth Not available.
UV 0.0 out of 12
Pollen .40 out of 12
Ozone Good
PM2.5 Moderate
Flu Activity Not available.
METAR KRZN 020515Z AUTO 00000KT 1 1/2SM BR BKN002 OVC008 12/12 A2984 RMK AO2 T01220120

More Conditions Fewer Conditions

Pressure 29.84 in
Visibility 1.5 miles
Clouds Mostly Cloudy 200 ft
Overcast 800 ft
Dew Point 53 °F
Humidity 98%
Rainfall 0.00 in
Snow Depth Not available.
UV 0.0 out of 12
Pollen .40 out of 12
Ozone Good
PM2.5 Moderate
Flu Activity Not available.
METAR KRZN 020515Z AUTO 00000KT 1 1/2SM BR BKN002 OVC008 12/12 A2984 RMK AO2 T01220120

More Conditions Fewer Conditions

10-Day Weather Forecast

Almanac

Astronomy

Oct. 02, 2014 Rise Set
Actual Time 7:09 AM CDT 6:48 PM CDT
Civil Twilight 6:39 AM CDT 7:17 PM CDT
Nautical Twilight 6:05 AM CDT 7:52 PM CDT
Astronomical Twilight 5:30 AM CDT 8:26 PM CDT
Moon 3:10 PM CDT 12:10 AM CDT
Length of Visible Light 12h 37m
Length of Day
11h 38m
Tomorrow will be 3m 10s shorter.
First Quarter, 55% of the Moon is Illuminated
Today
First Quarter
Oct 8
Full
Oct 15
Last Quarter
Oct 23
New
Oct 30
First Quarter

Today's Extremes

State Highs State Lows

Community

WunderPhotos

Upload Photos

1,758,195 photos uploaded!

Nearby

Air Quality

  Air Quality AQ Index Pollutant
Yesterday Good
OZONE
Yesterday Good
PM2.5
Current Moderate
PM2.5
Current Good
OZONE
Wednesday Good
OZONE
Wednesday Good
PM2.5
Thursday Good
PM2.5
Thursday Good
OZONE
Friday Good
OZONE
Friday Good
PM2.5
Saturday Good
OZONE
Saturday Good
PM2.5
Sunday Good
OZONE
Sunday Good
PM2.5
Monday Good
OZONE
Monday Good
PM2.5

Snow Depth

Station Depth Elevation
No new snow has been reported.

Earthquake Activity

City Distance Mag. Time & Date
No recent earthquake activity has been reported nearby.
Minimum magnitude displayed is 2.5.

Coastal Water Temperatures

Place Temperature
No Stations Reporting

Nearby Weather Stations